sensor_id;sensor_type;location;lat;lon;timestamp;pressure;altitude;pressure_sealevel;temperature;humidity
44441;BME280;30146;52.268;20.944;2023-07-16T00:00:32;100074.89;;;24.14;44.42
44441;BME280;30146;52.268;20.944;2023-07-16T00:03:03;100070.11;;;24.10;44.53
44441;BME280;30146;52.268;20.944;2023-07-16T00:05:37;100070.86;;;24.07;44.69
44441;BME280;30146;52.268;20.944;2023-07-16T00:08:08;100072.40;;;24.02;44.66
44441;BME280;30146;52.268;20.944;2023-07-16T00:10:40;100070.38;;;23.99;44.83
44441;BME280;30146;52.268;20.944;2023-07-16T00:13:12;100065.04;;;23.95;44.79
44441;BME280;30146;52.268;20.944;2023-07-16T00:15:43;100064.73;;;23.92;44.96
44441;BME280;30146;52.268;20.944;2023-07-16T00:18:15;100063.89;;;23.89;45.03
44441;BME280;30146;52.268;20.944;2023-07-16T00:20:46;100064.46;;;23.86;45.13
44441;BME280;30146;52.268;20.944;2023-07-16T00:23:17;100057.90;;;23.82;45.24
44441;BME280;30146;52.268;20.944;2023-07-16T00:25:48;100062.58;;;23.80;45.34
44441;BME280;30146;52.268;20.944;2023-07-16T00:28:19;100062.73;;;23.78;45.40
44441;BME280;30146;52.268;20.944;2023-07-16T00:30:50;100063.05;;;23.76;45.45
44441;BME280;30146;52.268;20.944;2023-07-16T00:33:21;100062.19;;;23.73;45.55
44441;BME280;30146;52.268;20.944;2023-07-16T00:35:52;100063.07;;;23.70;45.71
44441;BME280;30146;52.268;20.944;2023-07-16T00:38:24;100057.13;;;23.68;45.77
44441;BME280;30146;52.268;20.944;2023-07-16T00:40:55;100059.19;;;23.66;45.96
44441;BME280;30146;52.268;20.944;2023-07-16T00:43:26;100058.67;;;23.63;46.08
44441;BME280;30146;52.268;20.944;2023-07-16T00:45:57;100063.86;;;23.61;46.19
44441;BME280;30146;52.268;20.944;2023-07-16T00:48:30;100062.14;;;23.58;46.32
44441;BME280;30146;52.268;20.944;2023-07-16T00:51:03;100063.33;;;23.56;46.45
44441;BME280;30146;52.268;20.944;2023-07-16T00:53:35;100064.89;;;23.54;46.55
44441;BME280;30146;52.268;20.944;2023-07-16T00:56:06;100065.45;;;23.51;46.77
44441;BME280;30146;52.268;20.944;2023-07-16T00:58:38;100066.34;;;23.48;46.82
44441;BME280;30146;52.268;20.944;2023-07-16T01:01:09;100062.48;;;23.45;46.90
44441;BME280;30146;52.268;20.944;2023-07-16T01:03:41;100057.43;;;23.42;47.05
44441;BME280;30146;52.268;20.944;2023-07-16T01:06:16;100050.66;;;23.39;47.06
44441;BME280;30146;52.268;20.944;2023-07-16T01:08:52;100046.52;;;23.36;47.27
44441;BME280;30146;52.268;20.944;2023-07-16T01:11:28;100039.05;;;23.33;47.35
44441;BME280;30146;52.268;20.944;2023-07-16T01:14:00;100036.35;;;23.32;47.49
44441;BME280;30146;52.268;20.944;2023-07-16T01:16:31;100035.81;;;23.30;47.65
44441;BME280;30146;52.268;20.944;2023-07-16T01:19:03;100033.14;;;23.28;47.70
44441;BME280;30146;52.268;20.944;2023-07-16T01:21:38;100030.48;;;23.26;47.83
44441;BME280;30146;52.268;20.944;2023-07-16T01:24:32;100027.81;;;23.24;47.97
44441;BME280;30146;52.268;20.944;2023-07-16T01:27:30;100024.67;;;23.21;48.04
44441;BME280;30146;52.268;20.944;2023-07-16T01:30:09;100020.12;;;23.19;48.24
44441;BME280;30146;52.268;20.944;2023-07-16T01:32:43;100022.32;;;23.17;48.38
44441;BME280;30146;52.268;20.944;2023-07-16T01:35:16;100022.27;;;23.16;48.53
44441;BME280;30146;52.268;20.944;2023-07-16T01:37:47;100022.02;;;23.14;48.58
44441;BME280;30146;52.268;20.944;2023-07-16T01:40:19;100025.08;;;23.13;48.74
44441;BME280;30146;52.268;20.944;2023-07-16T01:42:50;100027.98;;;23.11;48.76
44441;BME280;30146;52.268;20.944;2023-07-16T01:45:22;100023.23;;;23.09;48.82
44441;BME280;30146;52.268;20.944;2023-07-16T01:48:04;100021.08;;;23.08;48.96
44441;BME280;30146;52.268;20.944;2023-07-16T01:50:37;100018.48;;;23.04;49.02
44441;BME280;30146;52.268;20.944;2023-07-16T01:53:08;100016.34;;;23.02;49.09
44441;BME280;30146;52.268;20.944;2023-07-16T01:55:39;100022.19;;;23.01;49.15
44441;BME280;30146;52.268;20.944;2023-07-16T01:58:10;100020.22;;;22.99;49.32
44441;BME280;30146;52.268;20.944;2023-07-16T02:00:41;100019.85;;;22.97;49.43
44441;BME280;30146;52.268;20.944;2023-07-16T02:03:13;100018.95;;;22.94;49.56
44441;BME280;30146;52.268;20.944;2023-07-16T02:05:44;100016.13;;;22.93;49.66
44441;BME280;30146;52.268;20.944;2023-07-16T02:08:15;100011.91;;;22.90;49.76
44441;BME280;30146;52.268;20.944;2023-07-16T02:10:48;100012.23;;;22.91;49.91
44441;BME280;30146;52.268;20.944;2023-07-16T02:13:20;100011.26;;;22.90;50.00
44441;BME280;30146;52.268;20.944;2023-07-16T02:15:51;100009.76;;;22.88;50.05
44441;BME280;30146;52.268;20.944;2023-07-16T02:18:22;100009.95;;;22.87;50.18
44441;BME280;30146;52.268;20.944;2023-07-16T02:20:53;100008.69;;;22.86;50.18
44441;BME280;30146;52.268;20.944;2023-07-16T02:23:24;100009.67;;;22.84;50.30
44441;BME280;30146;52.268;20.944;2023-07-16T02:25:56;100009.46;;;22.82;50.42
44441;BME280;30146;52.268;20.944;2023-07-16T02:28:27;100009.42;;;22.80;50.45
44441;BME280;30146;52.268;20.944;2023-07-16T02:30:58;100004.95;;;22.77;50.67
44441;BME280;30146;52.268;20.944;2023-07-16T02:33:29;100007.05;;;22.74;50.77
44441;BME280;30146;52.268;20.944;2023-07-16T02:36:01;100002.80;;;22.70;50.79
44441;BME280;30146;52.268;20.944;2023-07-16T02:38:33;100002.12;;;22.67;50.96
44441;BME280;30146;52.268;20.944;2023-07-16T02:41:04;100003.52;;;22.64;51.03
44441;BME280;30146;52.268;20.944;2023-07-16T02:43:35;100000.36;;;22.62;51.25
44441;BME280;30146;52.268;20.944;2023-07-16T02:46:06;100002.14;;;22.59;51.30
44441;BME280;30146;52.268;20.944;2023-07-16T02:48:37;100000.23;;;22.56;51.36
44441;BME280;30146;52.268;20.944;2023-07-16T02:51:08;100004.00;;;22.54;51.51
44441;BME280;30146;52.268;20.944;2023-07-16T02:53:40;100003.86;;;22.51;51.70
44441;BME280;30146;52.268;20.944;2023-07-16T02:56:11;100004.88;;;22.48;51.88
44441;BME280;30146;52.268;20.944;2023-07-16T02:58:42;100004.74;;;22.45;51.85
44441;BME280;30146;52.268;20.944;2023-07-16T03:01:13;100005.60;;;22.42;51.92
44441;BME280;30146;52.268;20.944;2023-07-16T03:03:45;100004.73;;;22.40;52.13
44441;BME280;30146;52.268;20.944;2023-07-16T03:06:16;100002.52;;;22.36;52.24
44441;BME280;30146;52.268;20.944;2023-07-16T03:08:53;99998.67;;;22.34;52.51
44441;BME280;30146;52.268;20.944;2023-07-16T03:11:24;100005.08;;;22.32;52.38
44441;BME280;30146;52.268;20.944;2023-07-16T03:13:56;100005.20;;;22.30;52.67
44441;BME280;30146;52.268;20.944;2023-07-16T03:16:27;100007.35;;;22.28;52.70
44441;BME280;30146;52.268;20.944;2023-07-16T03:18:59;100008.70;;;22.27;52.88
44441;BME280;30146;52.268;20.944;2023-07-16T03:21:32;100013.95;;;22.25;53.00
44441;BME280;30146;52.268;20.944;2023-07-16T03:24:04;100016.95;;;22.25;53.05
44441;BME280;30146;52.268;20.944;2023-07-16T03:26:35;100019.25;;;22.24;53.20
44441;BME280;30146;52.268;20.944;2023-07-16T03:29:06;100020.05;;;22.25;53.39
44441;BME280;30146;52.268;20.944;2023-07-16T03:31:38;100021.86;;;22.27;53.51
44441;BME280;30146;52.268;20.944;2023-07-16T03:34:10;100024.13;;;22.31;53.55
44441;BME280;30146;52.268;20.944;2023-07-16T03:36:42;100028.56;;;22.35;53.61
44441;BME280;30146;52.268;20.944;2023-07-16T03:39:13;100031.40;;;22.39;53.46
44441;BME280;30146;52.268;20.944;2023-07-16T03:41:44;100030.83;;;22.45;53.59
44441;BME280;30146;52.268;20.944;2023-07-16T03:44:16;100032.98;;;22.50;53.59
44441;BME280;30146;52.268;20.944;2023-07-16T03:46:47;100031.23;;;22.53;53.43
44441;BME280;30146;52.268;20.944;2023-07-16T03:49:18;100030.91;;;22.58;53.63
44441;BME280;30146;52.268;20.944;2023-07-16T03:51:49;100029.71;;;22.63;53.53
44441;BME280;30146;52.268;20.944;2023-07-16T03:54:20;100036.11;;;22.72;53.65
44441;BME280;30146;52.268;20.944;2023-07-16T03:56:52;100036.45;;;22.83;53.51
44441;BME280;30146;52.268;20.944;2023-07-16T03:59:23;100035.32;;;22.92;53.45
44441;BME280;30146;52.268;20.944;2023-07-16T04:01:54;100034.80;;;23.03;53.41
44441;BME280;30146;52.268;20.944;2023-07-16T04:04:25;100031.96;;;23.14;53.27
44441;BME280;30146;52.268;20.944;2023-07-16T04:06:56;100029.90;;;23.27;53.47
44441;BME280;30146;52.268;20.944;2023-07-16T04:09:28;100028.30;;;23.43;53.31
44441;BME280;30146;52.268;20.944;2023-07-16T04:11:59;100032.90;;;23.57;53.31
44441;BME280;30146;52.268;20.944;2023-07-16T04:14:30;100024.91;;;23.72;53.06
44441;BME280;30146;52.268;20.944;2023-07-16T04:17:01;100028.40;;;23.87;52.83
44441;BME280;30146;52.268;20.944;2023-07-16T04:19:32;100027.27;;;23.98;52.57
44441;BME280;30146;52.268;20.944;2023-07-16T04:22:04;100029.15;;;24.11;52.39
44441;BME280;30146;52.268;20.944;2023-07-16T04:24:35;100027.70;;;24.25;52.37
44441;BME280;30146;52.268;20.944;2023-07-16T04:27:06;100024.73;;;24.44;52.06
44441;BME280;30146;52.268;20.944;2023-07-16T04:29:37;100024.46;;;24.70;51.82
44441;BME280;30146;52.268;20.944;2023-07-16T04:32:09;100026.10;;;25.13;52.00
44441;BME280;30146;52.268;20.944;2023-07-16T04:34:40;100024.51;;;25.74;52.32
44441;BME280;30146;52.268;20.944;2023-07-16T04:37:11;100031.14;;;26.45;52.02
44441;BME280;30146;52.268;20.944;2023-07-16T04:39:42;100035.04;;;27.24;51.72
44441;BME280;30146;52.268;20.944;2023-07-16T04:42:13;100037.80;;;28.00;50.64
44441;BME280;30146;52.268;20.944;2023-07-16T04:44:46;100037.33;;;28.75;49.55
44441;BME280;30146;52.268;20.944;2023-07-16T04:47:17;100035.70;;;29.47;48.29
44441;BME280;30146;52.268;20.944;2023-07-16T04:49:48;100041.36;;;30.07;47.01
44441;BME280;30146;52.268;20.944;2023-07-16T04:52:19;100035.24;;;30.63;46.16
44441;BME280;30146;52.268;20.944;2023-07-16T04:54:50;100033.13;;;30.97;44.79
44441;BME280;30146;52.268;20.944;2023-07-16T04:57:22;100037.63;;;31.20;43.88
44441;BME280;30146;52.268;20.944;2023-07-16T04:59:53;100035.64;;;31.38;42.85
44441;BME280;30146;52.268;20.944;2023-07-16T05:02:24;100038.08;;;31.69;42.54
44441;BME280;30146;52.268;20.944;2023-07-16T05:04:55;100034.85;;;31.94;41.85
44441;BME280;30146;52.268;20.944;2023-07-16T05:07:26;100035.45;;;32.10;41.14
44441;BME280;30146;52.268;20.944;2023-07-16T05:09:57;100037.84;;;32.32;40.81
44441;BME280;30146;52.268;20.944;2023-07-16T05:12:29;100045.29;;;32.66;40.71
44441;BME280;30146;52.268;20.944;2023-07-16T05:15:00;100041.13;;;33.01;40.37
44441;BME280;30146;52.268;20.944;2023-07-16T05:17:31;100037.92;;;33.36;40.19
44441;BME280;30146;52.268;20.944;2023-07-16T05:20:03;100038.33;;;33.70;39.72
44441;BME280;30146;52.268;20.944;2023-07-16T05:22:35;100036.48;;;34.03;38.97
44441;BME280;30146;52.268;20.944;2023-07-16T05:25:08;100038.68;;;34.30;38.67
44441;BME280;30146;52.268;20.944;2023-07-16T05:27:39;100036.65;;;34.63;38.10
44441;BME280;30146;52.268;20.944;2023-07-16T05:30:12;100034.29;;;34.81;37.17
44441;BME280;30146;52.268;20.944;2023-07-16T05:32:43;100030.31;;;34.86;36.64
44441;BME280;30146;52.268;20.944;2023-07-16T05:35:14;100027.81;;;35.04;36.61
44441;BME280;30146;52.268;20.944;2023-07-16T05:37:45;100027.02;;;35.21;36.27
44441;BME280;30146;52.268;20.944;2023-07-16T05:40:17;100028.06;;;35.32;36.00
44441;BME280;30146;52.268;20.944;2023-07-16T05:42:48;100027.72;;;35.52;35.49
44441;BME280;30146;52.268;20.944;2023-07-16T05:45:19;100025.02;;;35.67;35.16
44441;BME280;30146;52.268;20.944;2023-07-16T05:47:50;100023.52;;;35.85;34.76
44441;BME280;30146;52.268;20.944;2023-07-16T05:50:21;100017.38;;;36.10;34.79
44441;BME280;30146;52.268;20.944;2023-07-16T05:52:52;100024.38;;;36.53;34.91
44441;BME280;30146;52.268;20.944;2023-07-16T05:55:23;100024.11;;;36.88;34.21
44441;BME280;30146;52.268;20.944;2023-07-16T05:57:54;100027.27;;;37.17;33.99
44441;BME280;30146;52.268;20.944;2023-07-16T06:00:25;100031.51;;;37.59;34.15
44441;BME280;30146;52.268;20.944;2023-07-16T06:02:56;100033.05;;;38.08;33.52
44441;BME280;30146;52.268;20.944;2023-07-16T06:05:28;100039.69;;;38.48;33.04
44441;BME280;30146;52.268;20.944;2023-07-16T06:08:02;100043.79;;;38.90;32.50
44441;BME280;30146;52.268;20.944;2023-07-16T06:10:35;100043.49;;;39.32;32.07
44441;BME280;30146;52.268;20.944;2023-07-16T06:13:06;100042.92;;;39.80;31.79
44441;BME280;30146;52.268;20.944;2023-07-16T06:15:37;100042.96;;;40.14;31.05
44441;BME280;30146;52.268;20.944;2023-07-16T06:18:08;100043.59;;;40.41;30.24
44441;BME280;30146;52.268;20.944;2023-07-16T06:20:42;100041.02;;;40.59;29.70
44441;BME280;30146;52.268;20.944;2023-07-16T06:23:11;100040.63;;;40.77;29.42
44441;BME280;30146;52.268;20.944;2023-07-16T06:25:43;100040.44;;;40.79;29.11
44441;BME280;30146;52.268;20.944;2023-07-16T06:28:15;100043.42;;;40.80;28.54
44441;BME280;30146;52.268;20.944;2023-07-16T06:30:46;100042.64;;;40.76;28.39
44441;BME280;30146;52.268;20.944;2023-07-16T06:33:17;100039.71;;;40.72;28.31
44441;BME280;30146;52.268;20.944;2023-07-16T06:35:48;100043.14;;;40.79;28.51
44441;BME280;30146;52.268;20.944;2023-07-16T06:38:19;100044.10;;;40.97;28.64
44441;BME280;30146;52.268;20.944;2023-07-16T06:40:51;100045.98;;;41.16;28.44
44441;BME280;30146;52.268;20.944;2023-07-16T06:43:22;100049.92;;;41.32;28.84
44441;BME280;30146;52.268;20.944;2023-07-16T06:45:53;100052.81;;;41.58;28.95
44441;BME280;30146;52.268;20.944;2023-07-16T06:48:24;100061.70;;;41.89;28.73
44441;BME280;30146;52.268;20.944;2023-07-16T06:50:56;100065.83;;;42.02;28.29
44441;BME280;30146;52.268;20.944;2023-07-16T06:53:27;100069.35;;;41.90;28.05
44441;BME280;30146;52.268;20.944;2023-07-16T06:55:58;100069.46;;;41.58;28.03
44441;BME280;30146;52.268;20.944;2023-07-16T06:58:34;100067.64;;;41.17;28.30
44441;BME280;30146;52.268;20.944;2023-07-16T07:01:05;100070.75;;;40.76;28.56
44441;BME280;30146;52.268;20.944;2023-07-16T07:03:36;100075.65;;;40.41;28.59
44441;BME280;30146;52.268;20.944;2023-07-16T07:06:07;100075.39;;;39.98;28.34
44441;BME280;30146;52.268;20.944;2023-07-16T07:08:40;100081.15;;;39.56;28.62
44441;BME280;30146;52.268;20.944;2023-07-16T07:11:11;100080.85;;;39.20;28.78
44441;BME280;30146;52.268;20.944;2023-07-16T07:13:42;100076.52;;;38.77;28.95
44441;BME280;30146;52.268;20.944;2023-07-16T07:16:13;100075.77;;;38.26;28.78
44441;BME280;30146;52.268;20.944;2023-07-16T07:18:45;100074.98;;;37.72;29.14
44441;BME280;30146;52.268;20.944;2023-07-16T07:21:16;100077.23;;;37.34;29.90
44441;BME280;30146;52.268;20.944;2023-07-16T07:23:47;100074.88;;;37.04;30.07
44441;BME280;30146;52.268;20.944;2023-07-16T07:26:18;100076.63;;;36.86;30.76
44441;BME280;30146;52.268;20.944;2023-07-16T07:28:49;100077.77;;;36.77;31.00
44441;BME280;30146;52.268;20.944;2023-07-16T07:31:20;100080.62;;;36.73;31.25
44441;BME280;30146;52.268;20.944;2023-07-16T07:33:51;100076.83;;;36.67;31.19
44441;BME280;30146;52.268;20.944;2023-07-16T07:36:23;100073.75;;;36.62;31.13
44441;BME280;30146;52.268;20.944;2023-07-16T07:38:54;100068.92;;;36.46;30.96
44441;BME280;30146;52.268;20.944;2023-07-16T07:41:25;100055.67;;;36.26;31.22
44441;BME280;30146;52.268;20.944;2023-07-16T07:43:56;100046.79;;;36.13;31.41
44441;BME280;30146;52.268;20.944;2023-07-16T07:46:27;100046.33;;;36.01;31.39
44441;BME280;30146;52.268;20.944;2023-07-16T07:48:58;100045.72;;;35.91;31.62
44441;BME280;30146;52.268;20.944;2023-07-16T07:51:29;100044.52;;;35.76;31.59
44441;BME280;30146;52.268;20.944;2023-07-16T07:54:00;100041.84;;;35.64;31.69
44441;BME280;30146;52.268;20.944;2023-07-16T07:56:31;100043.61;;;35.55;31.73
44441;BME280;30146;52.268;20.944;2023-07-16T07:59:02;100039.35;;;35.40;31.86
44441;BME280;30146;52.268;20.944;2023-07-16T08:01:33;100041.91;;;35.29;32.17
44441;BME280;30146;52.268;20.944;2023-07-16T08:04:05;100039.70;;;35.20;32.28
44441;BME280;30146;52.268;20.944;2023-07-16T08:06:37;100034.22;;;35.16;32.23
44441;BME280;30146;52.268;20.944;2023-07-16T08:09:08;100036.41;;;35.17;32.34
44441;BME280;30146;52.268;20.944;2023-07-16T08:11:39;100032.44;;;35.18;32.34
44441;BME280;30146;52.268;20.944;2023-07-16T08:14:10;100029.73;;;35.17;32.34
44441;BME280;30146;52.268;20.944;2023-07-16T08:16:41;100028.33;;;35.16;32.40
44441;BME280;30146;52.268;20.944;2023-07-16T08:19:12;100022.20;;;35.13;32.41
44441;BME280;30146;52.268;20.944;2023-07-16T08:21:44;100019.27;;;35.08;32.34
44441;BME280;30146;52.268;20.944;2023-07-16T08:24:15;100015.52;;;35.07;32.41
44441;BME280;30146;52.268;20.944;2023-07-16T08:26:46;100018.00;;;35.06;32.56
44441;BME280;30146;52.268;20.944;2023-07-16T08:29:17;100013.47;;;35.13;32.44
44441;BME280;30146;52.268;20.944;2023-07-16T08:31:48;100009.31;;;35.21;32.54
44441;BME280;30146;52.268;20.944;2023-07-16T08:34:19;100008.42;;;35.27;32.44
44441;BME280;30146;52.268;20.944;2023-07-16T08:36:50;100007.64;;;35.27;32.14
44441;BME280;30146;52.268;20.944;2023-07-16T08:48:40;99997.95;;;35.48;31.58
44441;BME280;30146;52.268;20.944;2023-07-16T08:51:14;99998.67;;;35.51;31.47
44441;BME280;30146;52.268;20.944;2023-07-16T08:53:45;99997.14;;;35.56;31.24
44441;BME280;30146;52.268;20.944;2023-07-16T08:56:17;99997.52;;;35.62;31.11
44441;BME280;30146;52.268;20.944;2023-07-16T08:58:49;99999.87;;;35.69;30.99
44441;BME280;30146;52.268;20.944;2023-07-16T09:01:20;100003.47;;;35.68;30.73
44441;BME280;30146;52.268;20.944;2023-07-16T09:03:52;100000.02;;;35.64;30.50
44441;BME280;30146;52.268;20.944;2023-07-16T09:06:24;99999.92;;;35.62;30.72
44441;BME280;30146;52.268;20.944;2023-07-16T09:08:55;100002.38;;;35.66;30.79
44441;BME280;30146;52.268;20.944;2023-07-16T09:11:27;100005.65;;;35.71;30.93
44441;BME280;30146;52.268;20.944;2023-07-16T09:13:58;99999.38;;;35.76;30.88
44441;BME280;30146;52.268;20.944;2023-07-16T09:16:35;99997.83;;;35.77;30.86
44441;BME280;30146;52.268;20.944;2023-07-16T09:19:11;99997.29;;;35.80;30.74
44441;BME280;30146;52.268;20.944;2023-07-16T09:21:47;99993.88;;;35.79;30.65
44441;BME280;30146;52.268;20.944;2023-07-16T09:24:19;99988.71;;;35.79;30.61
44441;BME280;30146;52.268;20.944;2023-07-16T09:26:51;99993.85;;;35.80;30.73
44441;BME280;30146;52.268;20.944;2023-07-16T09:29:24;99992.05;;;35.77;30.29
44441;BME280;30146;52.268;20.944;2023-07-16T09:31:58;99983.98;;;35.71;30.66
44441;BME280;30146;52.268;20.944;2023-07-16T09:34:30;99989.30;;;35.70;30.49
44441;BME280;30146;52.268;20.944;2023-07-16T09:37:04;99981.02;;;35.72;30.68
44441;BME280;30146;52.268;20.944;2023-07-16T09:39:37;99981.73;;;35.76;30.68
44441;BME280;30146;52.268;20.944;2023-07-16T09:42:08;99984.58;;;35.73;30.76
44441;BME280;30146;52.268;20.944;2023-07-16T09:44:40;99981.17;;;35.72;30.80
44441;BME280;30146;52.268;20.944;2023-07-16T09:47:12;99978.55;;;35.70;30.68
44441;BME280;30146;52.268;20.944;2023-07-16T09:49:43;99983.51;;;35.66;30.78
44441;BME280;30146;52.268;20.944;2023-07-16T09:52:15;99978.77;;;35.62;30.67
44441;BME280;30146;52.268;20.944;2023-07-16T09:54:47;99976.48;;;35.64;30.72
44441;BME280;30146;52.268;20.944;2023-07-16T09:57:21;99978.11;;;35.71;30.77
44441;BME280;30146;52.268;20.944;2023-07-16T09:59:54;99975.50;;;35.80;30.75
44441;BME280;30146;52.268;20.944;2023-07-16T10:02:27;99979.16;;;35.84;30.57
44441;BME280;30146;52.268;20.944;2023-07-16T10:04:58;99964.80;;;35.93;30.30
44441;BME280;30146;52.268;20.944;2023-07-16T10:07:31;99971.19;;;36.04;30.51
44441;BME280;30146;52.268;20.944;2023-07-16T10:10:09;99977.23;;;36.16;30.23
44441;BME280;30146;52.268;20.944;2023-07-16T10:12:43;99978.51;;;36.15;29.83
44441;BME280;30146;52.268;20.944;2023-07-16T10:15:24;99976.86;;;36.04;29.48
44441;BME280;30146;52.268;20.944;2023-07-16T10:17:56;99975.75;;;35.92;29.47
44441;BME280;30146;52.268;20.944;2023-07-16T10:20:32;99972.93;;;35.78;29.97
44441;BME280;30146;52.268;20.944;2023-07-16T10:23:13;99969.25;;;35.66;30.04
44441;BME280;30146;52.268;20.944;2023-07-16T10:25:59;99972.30;;;35.54;30.27
44441;BME280;30146;52.268;20.944;2023-07-16T10:28:30;99970.98;;;35.39;30.47
44441;BME280;30146;52.268;20.944;2023-07-16T10:31:02;99967.77;;;35.22;30.76
44441;BME280;30146;52.268;20.944;2023-07-16T10:33:33;99973.32;;;35.08;30.90
44441;BME280;30146;52.268;20.944;2023-07-16T10:36:07;99975.26;;;34.95;31.15
44441;BME280;30146;52.268;20.944;2023-07-16T10:38:43;99976.17;;;34.83;31.28
44441;BME280;30146;52.268;20.944;2023-07-16T10:41:14;99972.70;;;34.72;31.61
44441;BME280;30146;52.268;20.944;2023-07-16T10:43:45;99974.25;;;34.61;31.62
44441;BME280;30146;52.268;20.944;2023-07-16T10:46:17;99973.06;;;34.50;31.98
44441;BME280;30146;52.268;20.944;2023-07-16T10:48:49;99970.56;;;34.41;32.22
44441;BME280;30146;52.268;20.944;2023-07-16T10:51:26;99972.56;;;34.38;32.72
44441;BME280;30146;52.268;20.944;2023-07-16T10:53:58;99976.13;;;34.38;32.99
44441;BME280;30146;52.268;20.944;2023-07-16T10:56:29;99981.08;;;34.38;33.26
44441;BME280;30146;52.268;20.944;2023-07-16T10:59:00;99982.23;;;34.38;33.23
44441;BME280;30146;52.268;20.944;2023-07-16T11:01:34;99979.61;;;34.41;33.33
44441;BME280;30146;52.268;20.944;2023-07-16T11:04:09;99977.69;;;34.45;33.40
44441;BME280;30146;52.268;20.944;2023-07-16T11:06:40;99976.29;;;34.53;33.35
44441;BME280;30146;52.268;20.944;2023-07-16T11:09:12;99977.09;;;34.64;33.63
44441;BME280;30146;52.268;20.944;2023-07-16T11:11:45;99976.77;;;34.75;33.87
44441;BME280;30146;52.268;20.944;2023-07-16T11:14:17;99974.71;;;34.83;33.40
44441;BME280;30146;52.268;20.944;2023-07-16T11:16:48;99974.39;;;34.89;33.21
44441;BME280;30146;52.268;20.944;2023-07-16T11:19:21;99977.03;;;34.94;33.31
44441;BME280;30146;52.268;20.944;2023-07-16T11:21:53;99977.24;;;34.99;33.60
44441;BME280;30146;52.268;20.944;2023-07-16T11:24:25;99978.09;;;35.07;33.61
44441;BME280;30146;52.268;20.944;2023-07-16T11:26:57;99977.34;;;35.17;33.37
44441;BME280;30146;52.268;20.944;2023-07-16T11:29:35;99975.46;;;35.28;33.32
44441;BME280;30146;52.268;20.944;2023-07-16T11:32:08;99983.20;;;35.40;33.14
44441;BME280;30146;52.268;20.944;2023-07-16T11:34:53;99987.14;;;35.54;33.30
44441;BME280;30146;52.268;20.944;2023-07-16T11:37:23;99982.02;;;35.60;32.98
44441;BME280;30146;52.268;20.944;2023-07-16T11:39:58;99988.86;;;35.69;32.95
44441;BME280;30146;52.268;20.944;2023-07-16T11:42:37;99989.48;;;35.77;32.78
44441;BME280;30146;52.268;20.944;2023-07-16T11:45:17;99985.86;;;35.82;32.84
44441;BME280;30146;52.268;20.944;2023-07-16T11:47:48;99992.16;;;35.84;32.71
44441;BME280;30146;52.268;20.944;2023-07-16T11:50:20;99995.67;;;35.78;32.63
44441;BME280;30146;52.268;20.944;2023-07-16T11:52:55;99993.69;;;35.68;32.37
44441;BME280;30146;52.268;20.944;2023-07-16T11:55:26;99990.59;;;35.60;32.42
44441;BME280;30146;52.268;20.944;2023-07-16T11:57:57;99992.20;;;35.51;32.53
44441;BME280;30146;52.268;20.944;2023-07-16T12:00:29;99993.19;;;35.44;32.52
44441;BME280;30146;52.268;20.944;2023-07-16T12:03:01;99999.84;;;35.36;32.64
44441;BME280;30146;52.268;20.944;2023-07-16T12:05:32;100003.13;;;35.30;32.73
44441;BME280;30146;52.268;20.944;2023-07-16T12:08:22;100002.80;;;35.30;32.95
44441;BME280;30146;52.268;20.944;2023-07-16T12:10:53;100004.95;;;35.32;32.83
44441;BME280;30146;52.268;20.944;2023-07-16T12:13:25;100010.88;;;35.36;32.60
44441;BME280;30146;52.268;20.944;2023-07-16T12:15:56;100005.80;;;35.40;32.57
44441;BME280;30146;52.268;20.944;2023-07-16T12:18:33;100000.86;;;35.41;32.43
44441;BME280;30146;52.268;20.944;2023-07-16T12:21:03;100001.25;;;35.40;32.25
44441;BME280;30146;52.268;20.944;2023-07-16T12:23:36;99999.79;;;35.35;32.32
44441;BME280;30146;52.268;20.944;2023-07-16T12:26:08;100007.94;;;35.31;32.25
44441;BME280;30146;52.268;20.944;2023-07-16T12:28:39;99999.26;;;35.26;32.45
44441;BME280;30146;52.268;20.944;2023-07-16T12:31:13;100001.42;;;35.22;32.32
44441;BME280;30146;52.268;20.944;2023-07-16T12:33:45;100000.37;;;35.17;32.19
44441;BME280;30146;52.268;20.944;2023-07-16T12:36:17;100007.04;;;35.13;32.32
44441;BME280;30146;52.268;20.944;2023-07-16T12:38:48;100011.67;;;35.08;31.96
44441;BME280;30146;52.268;20.944;2023-07-16T12:41:19;100012.52;;;35.01;31.98
44441;BME280;30146;52.268;20.944;2023-07-16T12:43:52;100018.06;;;34.94;31.86
44441;BME280;30146;52.268;20.944;2023-07-16T12:46:24;100013.34;;;34.85;31.79
44441;BME280;30146;52.268;20.944;2023-07-16T12:48:55;100013.88;;;34.78;31.87
44441;BME280;30146;52.268;20.944;2023-07-16T12:51:26;100009.85;;;34.71;32.13
44441;BME280;30146;52.268;20.944;2023-07-16T12:53:58;100011.19;;;34.67;32.04
44441;BME280;30146;52.268;20.944;2023-07-16T12:56:30;100004.38;;;34.61;32.24
44441;BME280;30146;52.268;20.944;2023-07-16T12:59:02;100010.71;;;34.54;32.16
44441;BME280;30146;52.268;20.944;2023-07-16T13:01:33;100011.53;;;34.44;32.16
44441;BME280;30146;52.268;20.944;2023-07-16T13:04:05;100015.27;;;34.32;32.10
44441;BME280;30146;52.268;20.944;2023-07-16T13:06:36;100018.83;;;34.19;32.14
44441;BME280;30146;52.268;20.944;2023-07-16T13:09:08;100017.93;;;34.08;32.24
44441;BME280;30146;52.268;20.944;2023-07-16T13:11:40;100016.17;;;33.97;32.17
44441;BME280;30146;52.268;20.944;2023-07-16T13:14:11;100020.16;;;33.84;31.93
44441;BME280;30146;52.268;20.944;2023-07-16T13:16:42;100020.81;;;33.73;31.91